sensor_id;sensor_type;location;lat;lon;timestamp;temperature;humidity
65072;DHT22;51663;52.310;17.016;2023-04-03T00:02:32;16.20;33.20
65072;DHT22;51663;52.310;17.016;2023-04-03T00:05:40;15.80;32.90
65072;DHT22;51663;52.310;17.016;2023-04-03T00:08:52;15.80;33.80
65072;DHT22;51663;52.310;17.016;2023-04-03T00:11:55;16.40;32.30
65072;DHT22;51663;52.310;17.016;2023-04-03T00:15:00;16.00;32.80
65072;DHT22;51663;52.310;17.016;2023-04-03T00:18:06;15.70;32.90
65072;DHT22;51663;52.310;17.016;2023-04-03T00:21:12;16.40;32.80
65072;DHT22;51663;52.310;17.016;2023-04-03T00:24:17;15.90;32.50
65072;DHT22;51663;52.310;17.016;2023-04-03T00:27:40;15.50;33.60
65072;DHT22;51663;52.310;17.016;2023-04-03T00:30:48;16.30;32.60
65072;DHT22;51663;52.310;17.016;2023-04-03T00:33:55;16.20;32.60
65072;DHT22;51663;52.310;17.016;2023-04-03T00:37:01;16.70;31.60
65072;DHT22;51663;52.310;17.016;2023-04-03T00:40:06;16.90;31.40
65072;DHT22;51663;52.310;17.016;2023-04-03T00:43:21;17.10;31.20
65072;DHT22;51663;52.310;17.016;2023-04-03T00:46:30;16.60;31.50
65072;DHT22;51663;52.310;17.016;2023-04-03T00:49:38;17.10;31.30
65072;DHT22;51663;52.310;17.016;2023-04-03T00:52:44;16.90;31.40
65072;DHT22;51663;52.310;17.016;2023-04-03T00:56:01;17.70;30.10
65072;DHT22;51663;52.310;17.016;2023-04-03T00:59:22;18.10;29.60
65072;DHT22;51663;52.310;17.016;2023-04-03T01:02:33;17.70;30.00
65072;DHT22;51663;52.310;17.016;2023-04-03T01:05:53;17.40;30.00
65072;DHT22;51663;52.310;17.016;2023-04-03T01:09:02;17.20;30.70
65072;DHT22;51663;52.310;17.016;2023-04-03T01:12:20;17.60;30.30
65072;DHT22;51663;52.310;17.016;2023-04-03T01:15:27;18.00;29.60
65072;DHT22;51663;52.310;17.016;2023-04-03T01:18:41;17.70;30.00
65072;DHT22;51663;52.310;17.016;2023-04-03T01:25:09;18.60;29.20
65072;DHT22;51663;52.310;17.016;2023-04-03T01:28:22;17.90;29.70
65072;DHT22;51663;52.310;17.016;2023-04-03T01:31:48;18.20;29.30
65072;DHT22;51663;52.310;17.016;2023-04-03T01:35:00;17.30;30.30
65072;DHT22;51663;52.310;17.016;2023-04-03T01:38:06;17.70;30.10
65072;DHT22;51663;52.310;17.016;2023-04-03T01:41:16;17.10;30.20
65072;DHT22;51663;52.310;17.016;2023-04-03T01:44:33;18.00;29.70
65072;DHT22;51663;52.310;17.016;2023-04-03T01:47:38;18.50;29.00
65072;DHT22;51663;52.310;17.016;2023-04-03T01:50:41;17.60;29.40
65072;DHT22;51663;52.310;17.016;2023-04-03T01:53:50;16.80;31.20
65072;DHT22;51663;52.310;17.016;2023-04-03T01:57:03;16.90;31.20
65072;DHT22;51663;52.310;17.016;2023-04-03T02:00:09;16.60;31.50
65072;DHT22;51663;52.310;17.016;2023-04-03T02:03:13;16.90;31.40
65072;DHT22;51663;52.310;17.016;2023-04-03T02:06:27;16.80;31.20
65072;DHT22;51663;52.310;17.016;2023-04-03T02:09:44;18.00;30.00
65072;DHT22;51663;52.310;17.016;2023-04-03T02:12:56;19.30;28.20
65072;DHT22;51663;52.310;17.016;2023-04-03T02:16:16;18.30;28.90
65072;DHT22;51663;52.310;17.016;2023-04-03T02:19:23;17.30;29.90
65072;DHT22;51663;52.310;17.016;2023-04-03T02:22:34;17.90;30.00
65072;DHT22;51663;52.310;17.016;2023-04-03T02:25:38;16.60;31.60
65072;DHT22;51663;52.310;17.016;2023-04-03T02:28:49;16.00;33.00
65072;DHT22;51663;52.310;17.016;2023-04-03T02:31:54;17.30;31.20
65072;DHT22;51663;52.310;17.016;2023-04-03T02:35:13;16.40;31.80
65072;DHT22;51663;52.310;17.016;2023-04-03T02:38:22;17.20;30.80
65072;DHT22;51663;52.310;17.016;2023-04-03T02:41:30;16.90;30.90
65072;DHT22;51663;52.310;17.016;2023-04-03T02:44:42;15.90;32.80
65072;DHT22;51663;52.310;17.016;2023-04-03T02:47:50;16.40;32.80
65072;DHT22;51663;52.310;17.016;2023-04-03T02:50:52;16.60;31.60
65072;DHT22;51663;52.310;17.016;2023-04-03T02:54:02;16.80;31.10
65072;DHT22;51663;52.310;17.016;2023-04-03T02:57:06;17.00;31.00
65072;DHT22;51663;52.310;17.016;2023-04-03T03:00:17;17.10;31.00
65072;DHT22;51663;52.310;17.016;2023-04-03T03:03:29;17.70;29.60
65072;DHT22;51663;52.310;17.016;2023-04-03T03:06:36;17.80;29.30
65072;DHT22;51663;52.310;17.016;2023-04-03T03:09:48;18.60;29.10
65072;DHT22;51663;52.310;17.016;2023-04-03T03:13:00;18.50;28.90
65072;DHT22;51663;52.310;17.016;2023-04-03T03:16:12;18.60;28.80
65072;DHT22;51663;52.310;17.016;2023-04-03T03:19:15;18.50;29.10
65072;DHT22;51663;52.310;17.016;2023-04-03T03:22:26;18.50;29.00
65072;DHT22;51663;52.310;17.016;2023-04-03T03:25:29;18.60;28.90
65072;DHT22;51663;52.310;17.016;2023-04-03T03:28:33;20.40;27.30
65072;DHT22;51663;52.310;17.016;2023-04-03T03:31:39;20.00;27.50
65072;DHT22;51663;52.310;17.016;2023-04-03T03:34:46;19.00;27.70
65072;DHT22;51663;52.310;17.016;2023-04-03T03:37:58;18.60;28.80
65072;DHT22;51663;52.310;17.016;2023-04-03T03:41:08;18.70;28.60
65072;DHT22;51663;52.310;17.016;2023-04-03T03:44:21;19.10;28.30
65072;DHT22;51663;52.310;17.016;2023-04-03T03:47:31;18.90;28.40
65072;DHT22;51663;52.310;17.016;2023-04-03T03:50:34;19.10;28.20
65072;DHT22;51663;52.310;17.016;2023-04-03T03:53:44;18.10;29.10
65072;DHT22;51663;52.310;17.016;2023-04-03T03:56:52;18.10;29.40
65072;DHT22;51663;52.310;17.016;2023-04-03T04:00:04;17.90;29.60
65072;DHT22;51663;52.310;17.016;2023-04-03T04:03:07;18.40;29.20
65072;DHT22;51663;52.310;17.016;2023-04-03T04:06:15;18.40;29.00
65072;DHT22;51663;52.310;17.016;2023-04-03T04:09:27;19.10;28.30
65072;DHT22;51663;52.310;17.016;2023-04-03T04:12:35;18.30;29.00
65072;DHT22;51663;52.310;17.016;2023-04-03T04:15:40;18.10;29.40
65072;DHT22;51663;52.310;17.016;2023-04-03T04:18:44;18.10;29.60
65072;DHT22;51663;52.310;17.016;2023-04-03T04:21:48;17.40;29.90
65072;DHT22;51663;52.310;17.016;2023-04-03T04:24:53;18.00;29.50
65072;DHT22;51663;52.310;17.016;2023-04-03T04:28:00;18.40;28.90
65072;DHT22;51663;52.310;17.016;2023-04-03T04:31:13;18.90;28.30
65072;DHT22;51663;52.310;17.016;2023-04-03T04:34:28;19.40;27.90
65072;DHT22;51663;52.310;17.016;2023-04-03T04:37:36;19.50;27.90
65072;DHT22;51663;52.310;17.016;2023-04-03T04:40:42;19.20;27.60
65072;DHT22;51663;52.310;17.016;2023-04-03T04:43:49;18.80;28.40
65072;DHT22;51663;52.310;17.016;2023-04-03T04:46:54;18.60;28.50
65072;DHT22;51663;52.310;17.016;2023-04-03T04:50:08;17.70;29.50
65072;DHT22;51663;52.310;17.016;2023-04-03T04:53:15;19.20;28.40
65072;DHT22;51663;52.310;17.016;2023-04-03T04:56:22;19.10;27.80
65072;DHT22;51663;52.310;17.016;2023-04-03T04:59:28;19.00;28.40
65072;DHT22;51663;52.310;17.016;2023-04-03T05:02:33;17.90;28.50
65072;DHT22;51663;52.310;17.016;2023-04-03T05:05:41;17.70;29.60
65072;DHT22;51663;52.310;17.016;2023-04-03T05:08:52;16.70;30.50
65072;DHT22;51663;52.310;17.016;2023-04-03T05:11:55;17.10;31.00
65072;DHT22;51663;52.310;17.016;2023-04-03T05:15:06;17.60;30.30
65072;DHT22;51663;52.310;17.016;2023-04-03T05:18:14;16.20;32.10
65072;DHT22;51663;52.310;17.016;2023-04-03T05:21:26;16.60;31.80
65072;DHT22;51663;52.310;17.016;2023-04-03T05:24:31;16.80;31.80
65072;DHT22;51663;52.310;17.016;2023-04-03T05:27:37;17.70;30.20
65072;DHT22;51663;52.310;17.016;2023-04-03T05:30:55;16.90;30.60
65072;DHT22;51663;52.310;17.016;2023-04-03T05:34:00;16.80;31.60
65072;DHT22;51663;52.310;17.016;2023-04-03T05:37:10;17.90;30.20
65072;DHT22;51663;52.310;17.016;2023-04-03T05:40:16;18.00;29.80
65072;DHT22;51663;52.310;17.016;2023-04-03T05:43:24;17.50;29.90
65072;DHT22;51663;52.310;17.016;2023-04-03T05:46:31;18.00;30.00
65072;DHT22;51663;52.310;17.016;2023-04-03T05:49:43;18.00;29.70
65072;DHT22;51663;52.310;17.016;2023-04-03T05:52:58;17.60;29.80
65072;DHT22;51663;52.310;17.016;2023-04-03T05:56:05;17.10;30.40
65072;DHT22;51663;52.310;17.016;2023-04-03T05:59:09;17.70;30.00
65072;DHT22;51663;52.310;17.016;2023-04-03T06:02:13;17.80;29.80
65072;DHT22;51663;52.310;17.016;2023-04-03T06:05:19;18.50;29.10
65072;DHT22;51663;52.310;17.016;2023-04-03T06:08:25;18.00;29.40
65072;DHT22;51663;52.310;17.016;2023-04-03T06:11:36;17.90;29.50
65072;DHT22;51663;52.310;17.016;2023-04-03T06:14:48;17.90;29.90
65072;DHT22;51663;52.310;17.016;2023-04-03T06:17:59;18.00;29.90
65072;DHT22;51663;52.310;17.016;2023-04-03T06:21:02;17.40;30.00
65072;DHT22;51663;52.310;17.016;2023-04-03T06:24:12;16.90;30.70
65072;DHT22;51663;52.310;17.016;2023-04-03T06:27:32;17.40;30.90
65072;DHT22;51663;52.310;17.016;2023-04-03T06:30:43;17.80;30.50
65072;DHT22;51663;52.310;17.016;2023-04-03T06:34:01;18.60;29.20
65072;DHT22;51663;52.310;17.016;2023-04-03T06:37:19;17.60;30.40
65072;DHT22;51663;52.310;17.016;2023-04-03T06:40:31;18.00;29.80
65072;DHT22;51663;52.310;17.016;2023-04-03T06:43:36;17.90;29.60
65072;DHT22;51663;52.310;17.016;2023-04-03T06:50:14;18.80;28.90
65072;DHT22;51663;52.310;17.016;2023-04-03T06:53:30;18.60;29.40
65072;DHT22;51663;52.310;17.016;2023-04-03T06:56:50;19.20;28.40
65072;DHT22;51663;52.310;17.016;2023-04-03T06:59:55;18.50;28.40
65072;DHT22;51663;52.310;17.016;2023-04-03T07:03:03;19.30;28.40
65072;DHT22;51663;52.310;17.016;2023-04-03T07:06:07;21.00;26.10
65072;DHT22;51663;52.310;17.016;2023-04-03T07:09:10;20.20;26.30
65072;DHT22;51663;52.310;17.016;2023-04-03T07:12:12;20.40;26.50
65072;DHT22;51663;52.310;17.016;2023-04-03T07:15:15;21.60;25.20
65072;DHT22;51663;52.310;17.016;2023-04-03T07:18:17;21.40;24.30
65072;DHT22;51663;52.310;17.016;2023-04-03T07:21:19;21.60;24.70
65072;DHT22;51663;52.310;17.016;2023-04-03T07:24:22;21.60;24.40
65072;DHT22;51663;52.310;17.016;2023-04-03T07:27:25;20.30;25.70
65072;DHT22;51663;52.310;17.016;2023-04-03T07:30:27;21.10;25.50
65072;DHT22;51663;52.310;17.016;2023-04-03T07:33:30;20.60;25.70
65072;DHT22;51663;52.310;17.016;2023-04-03T07:36:33;19.10;26.40
65072;DHT22;51663;52.310;17.016;2023-04-03T07:39:35;19.00;27.10
65072;DHT22;51663;52.310;17.016;2023-04-03T07:42:37;18.60;27.60
65072;DHT22;51663;52.310;17.016;2023-04-03T07:45:40;18.60;27.80
65072;DHT22;51663;52.310;17.016;2023-04-03T07:48:42;19.40;26.60
65072;DHT22;51663;52.310;17.016;2023-04-03T07:51:44;19.20;26.40
65072;DHT22;51663;52.310;17.016;2023-04-03T07:54:47;20.00;25.80
65072;DHT22;51663;52.310;17.016;2023-04-03T07:57:49;20.10;24.60
65072;DHT22;51663;52.310;17.016;2023-04-03T08:00:52;20.60;24.00
65072;DHT22;51663;52.310;17.016;2023-04-03T08:03:55;21.30;24.20
65072;DHT22;51663;52.310;17.016;2023-04-03T08:06:57;22.70;23.10
65072;DHT22;51663;52.310;17.016;2023-04-03T08:09:59;23.00;22.70
65072;DHT22;51663;52.310;17.016;2023-04-03T08:13:03;23.20;21.90
65072;DHT22;51663;52.310;17.016;2023-04-03T08:16:15;22.80;21.90
65072;DHT22;51663;52.310;17.016;2023-04-03T08:19:26;21.50;22.50
65072;DHT22;51663;52.310;17.016;2023-04-03T08:22:28;21.40;23.20
65072;DHT22;51663;52.310;17.016;2023-04-03T08:25:31;21.20;23.10
65072;DHT22;51663;52.310;17.016;2023-04-03T08:28:33;19.90;23.80
65072;DHT22;51663;52.310;17.016;2023-04-03T08:31:36;20.00;25.20
65072;DHT22;51663;52.310;17.016;2023-04-03T08:34:38;20.10;23.80
65072;DHT22;51663;52.310;17.016;2023-04-03T08:37:42;18.40;24.70
65072;DHT22;51663;52.310;17.016;2023-04-03T08:41:33;18.00;25.30
65072;DHT22;51663;52.310;17.016;2023-04-03T08:44:39;17.10;25.70
65072;DHT22;51663;52.310;17.016;2023-04-03T08:48:06;18.60;25.30
65072;DHT22;51663;52.310;17.016;2023-04-03T08:51:17;17.90;24.30
65072;DHT22;51663;52.310;17.016;2023-04-03T08:54:51;16.70;26.80
65072;DHT22;51663;52.310;17.016;2023-04-03T08:58:04;17.40;26.10
65072;DHT22;51663;52.310;17.016;2023-04-03T09:01:36;17.40;25.60
65072;DHT22;51663;52.310;17.016;2023-04-03T09:04:41;17.50;25.70
65072;DHT22;51663;52.310;17.016;2023-04-03T09:08:14;18.40;25.50
65072;DHT22;51663;52.310;17.016;2023-04-03T09:15:36;19.30;23.30
65072;DHT22;51663;52.310;17.016;2023-04-03T09:19:41;18.50;23.70
65072;DHT22;51663;52.310;17.016;2023-04-03T09:28:18;18.10;24.80
65072;DHT22;51663;52.310;17.016;2023-04-03T09:31:25;18.90;23.90
65072;DHT22;51663;52.310;17.016;2023-04-03T09:34:40;19.10;23.50
65072;DHT22;51663;52.310;17.016;2023-04-03T09:37:54;19.60;23.40
65072;DHT22;51663;52.310;17.016;2023-04-03T09:41:16;20.10;22.90
65072;DHT22;51663;52.310;17.016;2023-04-03T09:44:22;19.60;23.00
65072;DHT22;51663;52.310;17.016;2023-04-03T09:47:31;18.70;24.70
65072;DHT22;51663;52.310;17.016;2023-04-03T09:50:36;19.30;23.50
65072;DHT22;51663;52.310;17.016;2023-04-03T09:53:46;20.00;22.70
65072;DHT22;51663;52.310;17.016;2023-04-03T09:57:19;20.20;23.50
65072;DHT22;51663;52.310;17.016;2023-04-03T10:01:35;19.50;23.40
65072;DHT22;51663;52.310;17.016;2023-04-03T10:04:40;19.30;23.40
65072;DHT22;51663;52.310;17.016;2023-04-03T10:07:43;20.10;22.70
65072;DHT22;51663;52.310;17.016;2023-04-03T10:11:09;20.60;22.30
65072;DHT22;51663;52.310;17.016;2023-04-03T10:14:41;21.30;22.00
65072;DHT22;51663;52.310;17.016;2023-04-03T10:22:30;19.10;23.80
65072;DHT22;51663;52.310;17.016;2023-04-03T10:25:43;18.90;24.00
65072;DHT22;51663;52.310;17.016;2023-04-03T10:39:48;18.90;22.50
65072;DHT22;51663;52.310;17.016;2023-04-03T10:57:20;20.60;20.70
65072;DHT22;51663;52.310;17.016;2023-04-03T11:00:49;20.70;21.50
65072;DHT22;51663;52.310;17.016;2023-04-03T11:03:59;19.00;21.60
65072;DHT22;51663;52.310;17.016;2023-04-03T11:07:40;19.30;21.90
65072;DHT22;51663;52.310;17.016;2023-04-03T11:10:51;20.90;21.40
65072;DHT22;51663;52.310;17.016;2023-04-03T11:14:11;21.20;22.50
65072;DHT22;51663;52.310;17.016;2023-04-03T11:17:28;20.40;22.50
65072;DHT22;51663;52.310;17.016;2023-04-03T11:20:36;20.20;22.90
65072;DHT22;51663;52.310;17.016;2023-04-03T11:24:05;20.80;22.60
65072;DHT22;51663;52.310;17.016;2023-04-03T11:27:19;20.80;23.00
65072;DHT22;51663;52.310;17.016;2023-04-03T11:34:09;20.90;21.60
65072;DHT22;51663;52.310;17.016;2023-04-03T11:37:40;21.30;20.80
65072;DHT22;51663;52.310;17.016;2023-04-03T11:40:49;20.80;21.90
65072;DHT22;51663;52.310;17.016;2023-04-03T11:44:13;20.00;22.10
65072;DHT22;51663;52.310;17.016;2023-04-03T11:47:48;20.30;22.70
65072;DHT22;51663;52.310;17.016;2023-04-03T11:50:51;20.60;23.30
65072;DHT22;51663;52.310;17.016;2023-04-03T11:54:35;20.50;21.30
65072;DHT22;51663;52.310;17.016;2023-04-03T11:58:11;21.30;21.80
65072;DHT22;51663;52.310;17.016;2023-04-03T12:01:51;22.40;20.90
65072;DHT22;51663;52.310;17.016;2023-04-03T12:05:28;22.20;20.00
65072;DHT22;51663;52.310;17.016;2023-04-03T12:11:43;21.40;20.80
65072;DHT22;51663;52.310;17.016;2023-04-03T12:14:46;20.80;21.60
65072;DHT22;51663;52.310;17.016;2023-04-03T12:17:49;20.00;22.00
65072;DHT22;51663;52.310;17.016;2023-04-03T12:20:56;21.20;21.80
65072;DHT22;51663;52.310;17.016;2023-04-03T12:27:26;19.30;22.70
65072;DHT22;51663;52.310;17.016;2023-04-03T12:30:30;19.10;22.20
65072;DHT22;51663;52.310;17.016;2023-04-03T12:33:52;19.80;22.40
65072;DHT22;51663;52.310;17.016;2023-04-03T12:47:31;19.60;22.40
65072;DHT22;51663;52.310;17.016;2023-04-03T12:50:35;20.20;21.20
65072;DHT22;51663;52.310;17.016;2023-04-03T12:53:38;21.40;20.70
65072;DHT22;51663;52.310;17.016;2023-04-03T12:56:40;21.90;20.70
65072;DHT22;51663;52.310;17.016;2023-04-03T12:59:43;23.30;20.00
65072;DHT22;51663;52.310;17.016;2023-04-03T13:02:48;22.60;20.00
65072;DHT22;51663;52.310;17.016;2023-04-03T13:05:51;21.90;21.40
65072;DHT22;51663;52.310;17.016;2023-04-03T13:08:56;21.00;22.00
65072;DHT22;51663;52.310;17.016;2023-04-03T13:12:15;20.50;22.60
65072;DHT22;51663;52.310;17.016;2023-04-03T13:15:26;20.10;21.90
65072;DHT22;51663;52.310;17.016;2023-04-03T13:18:34;19.60;22.10
65072;DHT22;51663;52.310;17.016;2023-04-03T13:21:37;19.50;22.20
65072;DHT22;51663;52.310;17.016;2023-04-03T13:24:39;20.00;22.00
65072;DHT22;51663;52.310;17.016;2023-04-03T13:27:42;20.40;22.00
65072;DHT22;51663;52.310;17.016;2023-04-03T13:34:49;21.30;22.20
65072;DHT22;51663;52.310;17.016;2023-04-03T13:37:57;21.40;21.50
65072;DHT22;51663;52.310;17.016;2023-04-03T13:41:22;22.50;20.80
65072;DHT22;51663;52.310;17.016;2023-04-03T13:44:33;21.90;20.20
65072;DHT22;51663;52.310;17.016;2023-04-03T13:47:40;22.60;20.00
65072;DHT22;51663;52.310;17.016;2023-04-03T13:51:05;23.00;20.20
65072;DHT22;51663;52.310;17.016;2023-04-03T13:54:31;22.30;20.20
65072;DHT22;51663;52.310;17.016;2023-04-03T13:57:33;21.80;20.40
65072;DHT22;51663;52.310;17.016;2023-04-03T14:00:59;22.30;19.80
65072;DHT22;51663;52.310;17.016;2023-04-03T14:04:18;22.90;19.90
65072;DHT22;51663;52.310;17.016;2023-04-03T14:07:21;22.50;20.20
65072;DHT22;51663;52.310;17.016;2023-04-03T14:10:23;23.00;19.70
65072;DHT22;51663;52.310;17.016;2023-04-03T14:13:25;22.50;20.10
65072;DHT22;51663;52.310;17.016;2023-04-03T14:16:31;21.40;20.40
65072;DHT22;51663;52.310;17.016;2023-04-03T14:19:35;20.10;22.10
65072;DHT22;51663;52.310;17.016;2023-04-03T14:22:37;19.70;22.30
65072;DHT22;51663;52.310;17.016;2023-04-03T14:25:40;19.90;21.90
65072;DHT22;51663;52.310;17.016;2023-04-03T14:28:45;20.10;21.50
65072;DHT22;51663;52.310;17.016;2023-04-03T14:31:48;20.10;20.70
65072;DHT22;51663;52.310;17.016;2023-04-03T14:34:59;19.80;21.50
65072;DHT22;51663;52.310;17.016;2023-04-03T14:38:01;20.10;21.90
65072;DHT22;51663;52.310;17.016;2023-04-03T14:41:03;21.40;21.00
65072;DHT22;51663;52.310;17.016;2023-04-03T14:44:17;21.60;20.40
65072;DHT22;51663;52.310;17.016;2023-04-03T14:47:21;21.90;20.40
65072;DHT22;51663;52.310;17.016;2023-04-03T14:50:33;21.90;19.90
65072;DHT22;51663;52.310;17.016;2023-04-03T14:53:35;22.80;19.70
65072;DHT22;51663;52.310;17.016;2023-04-03T14:56:40;23.50;19.20
65072;DHT22;51663;52.310;17.016;2023-04-03T14:59:44;23.10;18.40
65072;DHT22;51663;52.310;17.016;2023-04-03T15:02:47;23.10;18.50
65072;DHT22;51663;52.310;17.016;2023-04-03T15:05:50;22.00;19.50
65072;DHT22;51663;52.310;17.016;2023-04-03T15:08:52;21.20;20.30
65072;DHT22;51663;52.310;17.016;2023-04-03T15:11:57;21.00;20.60
65072;DHT22;51663;52.310;17.016;2023-04-03T15:15:00;21.20;21.10
65072;DHT22;51663;52.310;17.016;2023-04-03T15:18:05;20.30;21.80
65072;DHT22;51663;52.310;17.016;2023-04-03T15:21:08;20.90;21.90
65072;DHT22;51663;52.310;17.016;2023-04-03T15:24:10;21.70;20.80
65072;DHT22;51663;52.310;17.016;2023-04-03T15:27:13;21.50;20.20
65072;DHT22;51663;52.310;17.016;2023-04-03T15:30:18;20.00;20.80
65072;DHT22;51663;52.310;17.016;2023-04-03T15:33:21;18.90;21.40
65072;DHT22;51663;52.310;17.016;2023-04-03T15:36:23;19.40;21.50
65072;DHT22;51663;52.310;17.016;2023-04-03T15:39:35;20.40;20.50
65072;DHT22;51663;52.310;17.016;2023-04-03T15:42:38;21.10;20.20
65072;DHT22;51663;52.310;17.016;2023-04-03T15:45:41;19.60;21.30
65072;DHT22;51663;52.310;17.016;2023-04-03T15:48:43;19.80;21.60
65072;DHT22;51663;52.310;17.016;2023-04-03T15:51:46;19.70;21.40
65072;DHT22;51663;52.310;17.016;2023-04-03T15:54:48;20.30;21.60
65072;DHT22;51663;52.310;17.016;2023-04-03T15:57:52;19.80;21.70
65072;DHT22;51663;52.310;17.016;2023-04-03T16:00:54;20.60;20.90
65072;DHT22;51663;52.310;17.016;2023-04-03T16:03:59;21.00;20.60
65072;DHT22;51663;52.310;17.016;2023-04-03T16:07:03;20.60;21.00
65072;DHT22;51663;52.310;17.016;2023-04-03T16:10:07;20.40;21.60
65072;DHT22;51663;52.310;17.016;2023-04-03T16:13:09;19.60;21.80
65072;DHT22;51663;52.310;17.016;2023-04-03T16:16:12;19.40;22.50
65072;DHT22;51663;52.310;17.016;2023-04-03T16:19:14;19.80;22.30
65072;DHT22;51663;52.310;17.016;2023-04-03T16:22:17;20.50;22.40
65072;DHT22;51663;52.310;17.016;2023-04-03T16:25:19;20.30;22.20
65072;DHT22;51663;52.310;17.016;2023-04-03T16:28:22;19.90;22.30
65072;DHT22;51663;52.310;17.016;2023-04-03T16:31:26;20.00;21.90
65072;DHT22;51663;52.310;17.016;2023-04-03T16:34:29;20.10;22.10
65072;DHT22;51663;52.310;17.016;2023-04-03T16:37:33;20.60;21.10
65072;DHT22;51663;52.310;17.016;2023-04-03T16:40:40;19.90;21.90
65072;DHT22;51663;52.310;17.016;2023-04-03T16:44:00;19.90;22.30
65072;DHT22;51663;52.310;17.016;2023-04-03T16:47:03;20.10;21.50
65072;DHT22;51663;52.310;17.016;2023-04-03T16:50:06;20.20;21.70
65072;DHT22;51663;52.310;17.016;2023-04-03T16:53:09;20.70;21.10
65072;DHT22;51663;52.310;17.016;2023-04-03T16:56:11;21.00;20.80
65072;DHT22;51663;52.310;17.016;2023-04-03T16:59:13;20.80;20.60
65072;DHT22;51663;52.310;17.016;2023-04-03T17:02:16;20.70;20.20
65072;DHT22;51663;52.310;17.016;2023-04-03T17:05:18;20.40;21.20
65072;DHT22;51663;52.310;17.016;2023-04-03T17:08:20;20.60;21.40
65072;DHT22;51663;52.310;17.016;2023-04-03T17:11:23;21.00;20.80
65072;DHT22;51663;52.310;17.016;2023-04-03T17:14:25;22.00;20.30
65072;DHT22;51663;52.310;17.016;2023-04-03T17:17:27;22.60;20.10
65072;DHT22;51663;52.310;17.016;2023-04-03T17:20:30;23.70;19.30
65072;DHT22;51663;52.310;17.016;2023-04-03T17:23:35;22.70;19.50
65072;DHT22;51663;52.310;17.016;2023-04-03T17:26:40;22.30;19.80
65072;DHT22;51663;52.310;17.016;2023-04-03T17:29:43;22.50;19.50
65072;DHT22;51663;52.310;17.016;2023-04-03T17:32:45;22.20;20.00
65072;DHT22;51663;52.310;17.016;2023-04-03T17:35:49;21.70;20.70
65072;DHT22;51663;52.310;17.016;2023-04-03T17:38:51;21.90;20.50
65072;DHT22;51663;52.310;17.016;2023-04-03T17:41:54;22.00;20.90
65072;DHT22;51663;52.310;17.016;2023-04-03T17:44:56;22.70;20.60
65072;DHT22;51663;52.310;17.016;2023-04-03T17:47:59;22.10;20.90
65072;DHT22;51663;52.310;17.016;2023-04-03T17:51:08;23.20;20.40
65072;DHT22;51663;52.310;17.016;2023-04-03T17:54:11;22.60;20.50
65072;DHT22;51663;52.310;17.016;2023-04-03T17:57:13;21.50;21.50
65072;DHT22;51663;52.310;17.016;2023-04-03T18:00:19;21.00;21.90
65072;DHT22;51663;52.310;17.016;2023-04-03T18:03:22;20.40;22.50
65072;DHT22;51663;52.310;17.016;2023-04-03T18:06:31;20.80;22.70
65072;DHT22;51663;52.310;17.016;2023-04-03T18:09:35;20.50;23.10
65072;DHT22;51663;52.310;17.016;2023-04-03T18:12:38;20.90;22.70
65072;DHT22;51663;52.310;17.016;2023-04-03T18:15:49;21.40;22.30
65072;DHT22;51663;52.310;17.016;2023-04-03T18:18:54;21.80;21.90
65072;DHT22;51663;52.310;17.016;2023-04-03T18:22:20;22.00;22.00
65072;DHT22;51663;52.310;17.016;2023-04-03T18:25:24;22.40;21.70
65072;DHT22;51663;52.310;17.016;2023-04-03T18:28:26;21.90;22.70
65072;DHT22;51663;52.310;17.016;2023-04-03T18:31:31;22.30;22.00
65072;DHT22;51663;52.310;17.016;2023-04-03T18:34:34;21.80;22.70
65072;DHT22;51663;52.310;17.016;2023-04-03T18:37:37;22.20;22.30
65072;DHT22;51663;52.310;17.016;2023-04-03T18:40:40;21.60;22.60
65072;DHT22;51663;52.310;17.016;2023-04-03T18:43:44;22.30;22.10
65072;DHT22;51663;52.310;17.016;2023-04-03T18:46:46;22.10;22.10
65072;DHT22;51663;52.310;17.016;2023-04-03T18:49:49;22.10;22.20
65072;DHT22;51663;52.310;17.016;2023-04-03T18:52:51;21.40;22.60
65072;DHT22;51663;52.310;17.016;2023-04-03T18:55:55;21.30;22.50
65072;DHT22;51663;52.310;17.016;2023-04-03T18:59:08;21.40;22.50
65072;DHT22;51663;52.310;17.016;2023-04-03T19:06:24;22.20;21.80
65072;DHT22;51663;52.310;17.016;2023-04-03T19:09:37;22.30;21.70
65072;DHT22;51663;52.310;17.016;2023-04-03T19:17:11;22.40;21.70
65072;DHT22;51663;52.310;17.016;2023-04-03T19:20:17;20.80;22.40
65072;DHT22;51663;52.310;17.016;2023-04-03T19:23:58;21.90;22.40
65072;DHT22;51663;52.310;17.016;2023-04-03T19:27:32;21.80;21.60
65072;DHT22;51663;52.310;17.016;2023-04-03T19:30:40;21.80;21.90
65072;DHT22;51663;52.310;17.016;2023-04-03T19:33:49;21.00;22.80
65072;DHT22;51663;52.310;17.016;2023-04-03T19:37:15;21.20;22.80
65072;DHT22;51663;52.310;17.016;2023-04-03T19:40:28;21.30;22.50
65072;DHT22;51663;52.310;17.016;2023-04-03T19:43:45;20.90;22.50
65072;DHT22;51663;52.310;17.016;2023-04-03T19:47:10;21.60;22.00
65072;DHT22;51663;52.310;17.016;2023-04-03T19:50:16;22.20;21.60
65072;DHT22;51663;52.310;17.016;2023-04-03T19:53:19;21.90;21.40
65072;DHT22;51663;52.310;17.016;2023-04-03T19:56:25;23.10;20.50
65072;DHT22;51663;52.310;17.016;2023-04-03T19:59:27;23.60;20.00
65072;DHT22;51663;52.310;17.016;2023-04-03T20:02:34;22.90;20.30
65072;DHT22;51663;52.310;17.016;2023-04-03T20:09:54;23.10;20.90
65072;DHT22;51663;52.310;17.016;2023-04-03T20:12:56;22.80;21.10
65072;DHT22;51663;52.310;17.016;2023-04-03T20:16:06;22.80;21.00
65072;DHT22;51663;52.310;17.016;2023-04-03T20:19:09;23.10;21.00
65072;DHT22;51663;52.310;17.016;2023-04-03T20:22:12;23.90;20.40
65072;DHT22;51663;52.310;17.016;2023-04-03T20:25:15;23.60;21.10
65072;DHT22;51663;52.310;17.016;2023-04-03T20:28:37;24.40;19.90
65072;DHT22;51663;52.310;17.016;2023-04-03T20:31:40;25.40;19.30
65072;DHT22;51663;52.310;17.016;2023-04-03T20:34:43;24.40;19.50
65072;DHT22;51663;52.310;17.016;2023-04-03T20:37:54;24.40;19.80
65072;DHT22;51663;52.310;17.016;2023-04-03T20:41:06;24.80;19.60
65072;DHT22;51663;52.310;17.016;2023-04-03T20:44:09;25.40;19.20
65072;DHT22;51663;52.310;17.016;2023-04-03T20:47:14;24.20;19.80
65072;DHT22;51663;52.310;17.016;2023-04-03T20:50:17;24.20;20.00
65072;DHT22;51663;52.310;17.016;2023-04-03T20:53:22;24.80;19.70
65072;DHT22;51663;52.310;17.016;2023-04-03T20:56:28;24.80;19.60
65072;DHT22;51663;52.310;17.016;2023-04-03T20:59:58;24.80;19.80